Sunday, July 22, 2018, 4:21 PM GMT
Back to Local

CXMY, Malay Falls , N. S.

Location: , , Canada Lat: 44.983
Local Time: 4:21 PM GMT (16:21 GMT) Lon: -62.483
Time Zone: GMT Elev: 131 ft

Show me the last for .
Show Coded

Time T Td Feel RH Dir Speed Gust Alt SLP Vis Weather Sky Remarks
2018-07-22 16:00 70 69 - 98 - - - - - 0 None
2018-07-22 15:00 68 67 - 98 - - - - - 0 None
2018-07-22 14:00 67 66 - 99 - - - - - 0 1-hr Precip Total: 0.12"
2018-07-22 13:00 64 64 - 99 - - - - - 0 1-hr Precip Total: 0.05"
2018-07-22 12:00 63 63 - 99 - - - - - 0 1-hr Precip Total: 0.34"
2018-07-22 11:00 62 62 - 99 - - - - - 0 None
2018-07-22 10:00 60 60 - 100 - - - - - 0 None
2018-07-22 09:00 59 59 - 100 - - - - - 0 None
2018-07-22 08:00 60 60 - 100 - - - - - 0 None
2018-07-22 07:00 60 60 - 99 - - - - - 0 None
2018-07-22 06:00 60 60 - 100 - - - - - 0 None
2018-07-22 05:00 60 60 - 99 - - - - - 0 None
2018-07-22 04:00 61 61 - 99 - - - - - 0 None
2018-07-22 03:00 61 61 - 99 - - - - - 0 1-hr Precip Total: 0.08"
2018-07-22 02:00 62 61 - 99 - - - - - 0 1-hr Precip Total: 0.31"
2018-07-22 01:00 62 62 - 98 - - - - - 0 1-hr Precip Total: 0.37"
2018-07-22 00:00 62 62 - 99 - - - - - 0 1-hr Precip Total: 0.03"
2018-07-21 23:00 62 61 - 99 - - - - - 0 None
2018-07-21 22:00 62 60 - 92 - - - - - 0 None
2018-07-21 21:00 64 63 - 98 - - - - - 0 None
2018-07-21 20:00 66 65 - 95 - - - - - 0 None
2018-07-21 19:00 68 67 - 95 - - - - - 0 None
2018-07-21 18:00 70 68 - 94 - - - - - 0 None
2018-07-21 17:00 68 67 - 96 - - - - - 0 None

Support USWX by starting your Amazon purchase here.